Time;durP1;ratioP1;P1;durP2;ratioP2;P2;SDS_P1;SDS_P2;PMS_P1;PMS_P2;Temp;Humidity;BMP_temperature;BMP_pressure;BME280_temperature;BME280_humidity;BME280_pressure;Samples;Min_cycle;Max_cycle;Signal;HPM_P1;HPM_P2
2023/08/25 00:00:34;;;;;;;10.73;7.93;;;;;;;;;;10354632;28;20074;-65
2023/08/25 00:05:36;;;;;;;8.73;8.02;;;;;;;;;;10355546;28;20074;-65
2023/08/25 00:10:34;;;;;;;9.02;8.23;;;;;;;;;;10355678;28;20084;-64
2023/08/25 00:15:34;;;;;;;8.57;7.22;;;;;;;;;;10355189;28;20068;-63
2023/08/25 00:20:32;;;;;;;12.35;7.95;;;;;;;;;;10354750;28;20076;-63
2023/08/25 00:25:30;;;;;;;9.00;8.25;;;;;;;;;;10354492;28;20091;-66
2023/08/25 00:30:29;;;;;;;9.30;8.40;;;;;;;;;;10354759;28;20056;-64
2023/08/25 00:35:30;;;;;;;11.05;7.82;;;;;;;;;;10336495;28;20072;-64
2023/08/25 00:40:28;;;;;;;9.32;8.50;;;;;;;;;;10354457;28;20067;-65
2023/08/25 00:45:26;;;;;;;10.13;7.35;;;;;;;;;;10353406;28;20071;-65
2023/08/25 00:50:25;;;;;;;8.90;8.20;;;;;;;;;;10354319;28;20060;-65
2023/08/25 00:55:25;;;;;;;9.63;8.40;;;;;;;;;;10335841;28;20460;-65
2023/08/25 01:00:25;;;;;;;9.30;7.78;;;;;;;;;;10353388;28;20491;-65
2023/08/25 01:05:26;;;;;;;8.95;7.70;;;;;;;;;;10335398;28;20074;-64
2023/08/25 01:10:27;;;;;;;9.65;8.10;;;;;;;;;;10335428;28;20075;-64
2023/08/25 01:15:29;;;;;;;9.50;8.60;;;;;;;;;;10335791;28;20507;-65
2023/08/25 01:20:28;;;;;;;9.30;8.50;;;;;;;;;;10352230;28;20082;-65
2023/08/25 01:25:30;;;;;;;9.98;9.07;;;;;;;;;;10354329;28;20107;-64
2023/08/25 01:30:30;;;;;;;10.45;8.55;;;;;;;;;;10337330;28;20074;-64
2023/08/25 01:35:35;;;;;;;9.73;8.82;;;;;;;;;;10343115;28;20094;-65
2023/08/25 01:40:37;;;;;;;8.85;7.85;;;;;;;;;;10357332;28;20074;-65
2023/08/25 01:45:36;;;;;;;9.00;8.27;;;;;;;;;;10359583;28;20074;-65
2023/08/25 01:50:36;;;;;;;9.75;7.82;;;;;;;;;;10359651;28;20068;-65
2023/08/25 01:55:35;;;;;;;9.18;8.23;;;;;;;;;;10360840;28;20066;-65
2023/08/25 02:00:34;;;;;;;11.40;8.43;;;;;;;;;;10341242;28;20075;-65
2023/08/25 02:05:32;;;;;;;12.20;8.88;;;;;;;;;;10347654;28;20079;-66
2023/08/25 02:10:30;;;;;;;10.68;8.65;;;;;;;;;;10358955;28;20071;-65
2023/08/25 02:15:30;;;;;;;9.90;7.90;;;;;;;;;;10360024;28;20072;-65
2023/08/25 02:20:28;;;;;;;11.80;9.60;;;;;;;;;;10359533;28;20071;-64
2023/08/25 02:25:26;;;;;;;10.88;9.05;;;;;;;;;;10359712;28;20488;-64
2023/08/25 02:30:24;;;;;;;9.63;8.73;;;;;;;;;;10359722;28;20064;-65
2023/08/25 02:35:24;;;;;;;10.15;8.50;;;;;;;;;;10359080;28;20436;-65
2023/08/25 02:40:22;;;;;;;12.50;8.98;;;;;;;;;;10358777;28;20083;-65
2023/08/25 02:45:20;;;;;;;9.27;8.48;;;;;;;;;;10340070;28;20051;-65
2023/08/25 02:50:19;;;;;;;10.52;8.68;;;;;;;;;;10339756;28;20496;-64
2023/08/25 02:55:20;;;;;;;12.95;7.95;;;;;;;;;;10339625;28;20071;-65
2023/08/25 03:00:20;;;;;;;9.32;8.43;;;;;;;;;;10337813;28;20076;-65
2023/08/25 03:05:19;;;;;;;8.68;8.05;;;;;;;;;;10344489;28;20056;-65
2023/08/25 03:10:19;;;;;;;10.05;8.35;;;;;;;;;;10350941;28;20091;-65
2023/08/25 03:15:17;;;;;;;11.43;9.35;;;;;;;;;;10339114;28;20146;-65
2023/08/25 03:20:16;;;;;;;9.15;8.35;;;;;;;;;;10338545;28;20492;-65
2023/08/25 03:25:14;;;;;;;9.07;8.27;;;;;;;;;;10352628;28;20170;-63
2023/08/25 03:30:14;;;;;;;11.15;9.30;;;;;;;;;;10336282;28;20075;-65
2023/08/25 03:35:13;;;;;;;11.10;9.38;;;;;;;;;;10338030;28;20040;-65
2023/08/25 03:40:11;;;;;;;10.30;9.23;;;;;;;;;;10354031;28;20075;-65
2023/08/25 03:45:10;;;;;;;10.38;9.43;;;;;;;;;;10336756;28;20449;-65
2023/08/25 03:50:10;;;;;;;13.27;11.80;;;;;;;;;;10337581;28;20071;-66
2023/08/25 03:55:09;;;;;;;11.13;9.93;;;;;;;;;;10334246;28;20041;-65
2023/08/25 04:00:08;;;;;;;14.23;10.00;;;;;;;;;;10354868;28;20090;-65
2023/08/25 04:05:14;;;;;;;11.32;10.15;;;;;;;;;;10368628;28;20472;-65
2023/08/25 04:10:12;;;;;;;10.32;9.10;;;;;;;;;;10354639;28;20139;-65
2023/08/25 04:15:10;;;;;;;21.08;11.30;;;;;;;;;;10353965;28;20040;-65
2023/08/25 04:20:10;;;;;;;17.70;10.85;;;;;;;;;;10355210;28;20470;-65
2023/08/25 04:25:10;;;;;;;18.73;12.18;;;;;;;;;;10336991;28;20098;-65
2023/08/25 04:30:11;;;;;;;20.48;11.30;;;;;;;;;;10351874;28;20537;-65
2023/08/25 04:35:10;;;;;;;26.25;15.60;;;;;;;;;;10353590;28;20086;-65
2023/08/25 04:40:10;;;;;;;26.45;14.55;;;;;;;;;;10352673;28;20483;-64
2023/08/25 04:45:09;;;;;;;28.58;14.80;;;;;;;;;;10354129;28;20093;-64
2023/08/25 04:50:08;;;;;;;26.80;15.57;;;;;;;;;;10352339;28;20079;-64
2023/08/25 04:55:11;;;;;;;15.90;14.25;;;;;;;;;;10352449;28;20086;-64
2023/08/25 05:00:10;;;;;;;22.17;17.52;;;;;;;;;;10335282;28;20506;-64
2023/08/25 05:05:11;;;;;;;19.63;16.40;;;;;;;;;;10345409;28;20064;-65
2023/08/25 05:10:11;;;;;;;19.60;17.17;;;;;;;;;;10352305;28;20071;-65
2023/08/25 05:15:13;;;;;;;29.67;17.40;;;;;;;;;;10352924;28;20079;-64
2023/08/25 05:20:12;;;;;;;31.20;18.30;;;;;;;;;;10340955;28;20072;-65
2023/08/25 05:25:12;;;;;;;37.78;18.95;;;;;;;;;;10351915;28;20080;-65
2023/08/25 05:30:11;;;;;;;28.20;17.42;;;;;;;;;;10346525;28;20509;-65
2023/08/25 05:35:11;;;;;;;19.55;16.02;;;;;;;;;;10355290;28;20064;-65
2023/08/25 05:40:13;;;;;;;18.98;16.65;;;;;;;;;;10350487;28;20074;-64
2023/08/25 05:45:12;;;;;;;21.17;16.48;;;;;;;;;;10330738;28;20082;-64
2023/08/25 05:50:12;;;;;;;19.95;14.95;;;;;;;;;;10352127;28;20080;-65
2023/08/25 05:55:12;;;;;;;19.67;16.63;;;;;;;;;;10351515;28;20547;-65
2023/08/25 06:00:11;;;;;;;27.23;16.02;;;;;;;;;;10324208;28;20090;-65
2023/08/25 06:05:14;;;;;;;17.83;15.40;;;;;;;;;;10352436;28;20075;-65
2023/08/25 06:10:14;;;;;;;25.38;14.35;;;;;;;;;;10352867;28;20169;-65
2023/08/25 06:15:12;;;;;;;15.90;14.02;;;;;;;;;;10353191;28;20064;-65
2023/08/25 06:20:11;;;;;;;21.08;15.30;;;;;;;;;;10355530;28;20083;-64
2023/08/25 06:25:10;;;;;;;20.90;13.75;;;;;;;;;;10359413;28;20087;-64
2023/08/25 06:30:10;;;;;;;17.50;13.60;;;;;;;;;;10359597;28;20086;-64
2023/08/25 06:35:09;;;;;;;19.10;12.80;;;;;;;;;;10358200;28;20083;-64
2023/08/25 06:40:08;;;;;;;24.25;12.27;;;;;;;;;;10358729;28;20505;-64
2023/08/25 06:45:07;;;;;;;19.67;12.65;;;;;;;;;;10358765;28;20076;-63
2023/08/25 06:50:10;;;;;;;16.50;12.10;;;;;;;;;;10359076;28;20091;-63
2023/08/25 06:55:09;;;;;;;18.38;11.95;;;;;;;;;;10358418;28;20071;-63
2023/08/25 07:00:08;;;;;;;12.85;11.70;;;;;;;;;;10353787;28;20142;-63
2023/08/25 07:05:07;;;;;;;14.25;11.77;;;;;;;;;;10349926;28;20082;-63
2023/08/25 07:10:07;;;;;;;16.48;12.20;;;;;;;;;;10348571;28;20076;-63
2023/08/25 07:15:05;;;;;;;15.98;11.75;;;;;;;;;;10357390;28;20080;-62
2023/08/25 07:20:04;;;;;;;12.38;11.07;;;;;;;;;;10351318;28;20076;-63
2023/08/25 07:25:04;;;;;;;11.75;9.95;;;;;;;;;;10357153;28;20087;-63
2023/08/25 07:30:04;;;;;;;16.25;10.82;;;;;;;;;;10355952;28;20528;-63
2023/08/25 07:35:04;;;;;;;12.77;9.95;;;;;;;;;;10345276;28;20071;-63
2023/08/25 07:40:05;;;;;;;10.82;9.82;;;;;;;;;;10347343;28;20083;-63
2023/08/25 07:45:04;;;;;;;13.07;10.57;;;;;;;;;;10355768;28;20076;-63
2023/08/25 07:50:03;;;;;;;11.50;9.40;;;;;;;;;;10355632;28;20083;-64
2023/08/25 07:55:05;;;;;;;11.75;9.45;;;;;;;;;;10356338;28;20070;-64
2023/08/25 08:00:04;;;;;;;9.90;8.50;;;;;;;;;;10348143;28;20083;-62
2023/08/25 08:05:03;;;;;;;10.23;8.80;;;;;;;;;;10344281;28;20543;-63
2023/08/25 08:10:01;;;;;;;13.73;10.40;;;;;;;;;;10355125;28;20082;-64
2023/08/25 08:15:00;;;;;;;13.88;11.07;;;;;;;;;;10351166;28;20071;-64
2023/08/25 08:19:59;;;;;;;15.25;10.57;;;;;;;;;;10336665;28;20071;-63
2023/08/25 08:24:57;;;;;;;12.38;10.82;;;;;;;;;;10354730;28;20528;-64
2023/08/25 08:29:55;;;;;;;11.82;10.73;;;;;;;;;;10355564;28;20071;-64
2023/08/25 08:34:55;;;;;;;15.90;11.30;;;;;;;;;;10355336;28;20464;-63
2023/08/25 08:39:54;;;;;;;11.63;10.27;;;;;;;;;;10352484;28;20090;-62
2023/08/25 08:44:52;;;;;;;11.02;9.93;;;;;;;;;;10352053;28;20079;-67
2023/08/25 08:49:51;;;;;;;11.88;10.73;;;;;;;;;;10353288;28;20059;-63
2023/08/25 08:54:51;;;;;;;13.90;11.25;;;;;;;;;;10353479;28;20067;-64
2023/08/25 08:59:51;;;;;;;16.42;11.77;;;;;;;;;;10346827;28;20513;-64
2023/08/25 09:04:51;;;;;;;16.08;11.98;;;;;;;;;;10347450;28;20517;-64
2023/08/25 09:09:51;;;;;;;13.75;11.73;;;;;;;;;;10340300;28;20095;-64
2023/08/25 09:14:49;;;;;;;18.05;11.95;;;;;;;;;;10353732;28;20083;-63
2023/08/25 09:19:47;;;;;;;18.15;12.15;;;;;;;;;;10353303;28;20484;-64
2023/08/25 09:24:45;;;;;;;14.15;11.48;;;;;;;;;;10354287;28;20535;-64
2023/08/25 09:29:45;;;;;;;14.07;12.60;;;;;;;;;;10354765;28;20480;-64
2023/08/25 09:34:43;;;;;;;16.80;11.45;;;;;;;;;;10349034;28;20068;-63
2023/08/25 09:39:42;;;;;;;13.07;11.35;;;;;;;;;;10349247;28;20497;-63
2023/08/25 09:44:40;;;;;;;10.65;9.65;;;;;;;;;;10346655;28;20079;-64
2023/08/25 09:49:42;;;;;;;13.35;8.65;;;;;;;;;;10352319;28;20063;-64
2023/08/25 09:54:41;;;;;;;15.02;9.15;;;;;;;;;;10357978;28;20071;-63
2023/08/25 09:59:39;;;;;;;15.93;10.50;;;;;;;;;;10354777;28;20063;-62
2023/08/25 10:04:39;;;;;;;10.95;9.15;;;;;;;;;;10356125;28;20071;-62
2023/08/25 10:09:39;;;;;;;14.02;8.88;;;;;;;;;;10358716;28;20095;-63
2023/08/25 10:14:38;;;;;;;14.25;9.60;;;;;;;;;;10357568;28;20066;-63
2023/08/25 10:19:38;;;;;;;11.65;9.00;;;;;;;;;;10362324;28;20055;-63
2023/08/25 10:24:36;;;;;;;12.82;9.55;;;;;;;;;;10360610;28;20079;-63
2023/08/25 10:29:36;;;;;;;12.52;9.50;;;;;;;;;;10353857;28;20087;-63
2023/08/25 10:34:35;;;;;;;13.07;9.82;;;;;;;;;;10349942;28;20067;-63
2023/08/25 10:39:46;;;;;;;11.82;8.90;;;;;;;;;;10358545;28;20098;-63
2023/08/25 10:44:46;;;;;;;11.70;8.90;;;;;;;;;;10359484;28;20055;-62
2023/08/25 10:49:46;;;;;;;12.07;8.90;;;;;;;;;;10358815;28;20405;-62
2023/08/25 10:54:45;;;;;;;11.90;7.63;;;;;;;;;;10345639;28;20071;-62
2023/08/25 10:59:46;;;;;;;11.10;7.95;;;;;;;;;;10337833;28;20075;-63
2023/08/25 11:04:48;;;;;;;8.30;7.27;;;;;;;;;;10341242;28;20072;-63
2023/08/25 11:09:46;;;;;;;8.95;7.60;;;;;;;;;;10355239;28;20072;-63
2023/08/25 11:14:45;;;;;;;7.97;7.25;;;;;;;;;;10354593;28;20068;-63
2023/08/25 11:19:44;;;;;;;7.57;6.78;;;;;;;;;;10353500;28;20083;-63
2023/08/25 11:24:45;;;;;;;6.78;6.18;;;;;;;;;;10356990;28;20091;-63
2023/08/25 11:29:44;;;;;;;10.13;7.13;;;;;;;;;;10358424;28;20067;-63
2023/08/25 11:34:47;;;;;;;9.57;6.53;;;;;;;;;;10356459;28;20481;-62
2023/08/25 11:39:46;;;;;;;6.82;6.28;;;;;;;;;;10357893;28;20082;-62
2023/08/25 11:44:45;;;;;;;6.90;6.20;;;;;;;;;;10357443;28;20075;-62
2023/08/25 11:49:43;;;;;;;7.60;6.88;;;;;;;;;;10352088;28;20075;-63
2023/08/25 11:54:45;;;;;;;8.52;7.72;;;;;;;;;;10352994;28;20072;-63
2023/08/25 11:59:46;;;;;;;9.55;7.25;;;;;;;;;;10343520;28;20079;-63
2023/08/25 12:04:52;;;;;;;9.90;6.60;;;;;;;;;;10356375;28;20068;-62
2023/08/25 12:09:55;;;;;;;6.97;6.28;;;;;;;;;;10359299;28;20067;-61
2023/08/25 12:14:54;;;;;;;8.68;5.97;;;;;;;;;;10354881;28;20094;-63
2023/08/25 12:19:53;;;;;;;7.95;5.85;;;;;;;;;;10348082;28;20064;-63
2023/08/25 12:24:52;;;;;;;7.43;6.32;;;;;;;;;;10349513;28;20094;-64
2023/08/25 12:29:50;;;;;;;5.20;4.80;;;;;;;;;;10351902;28;20068;-63
2023/08/25 12:34:50;;;;;;;5.78;5.30;;;;;;;;;;10349486;28;20844;-63
2023/08/25 12:39:49;;;;;;;8.48;5.70;;;;;;;;;;10353743;28;20079;-62
2023/08/25 12:44:49;;;;;;;6.40;5.72;;;;;;;;;;10350167;28;20086;-61
2023/08/25 12:49:47;;;;;;;7.28;6.63;;;;;;;;;;10352974;28;20574;-62
2023/08/25 12:54:47;;;;;;;7.65;6.68;;;;;;;;;;10350955;28;20075;-61
2023/08/25 12:59:47;;;;;;;12.10;6.57;;;;;;;;;;10354558;28;20067;-61
2023/08/25 13:04:46;;;;;;;6.60;5.60;;;;;;;;;;10350542;28;20082;-62
2023/08/25 13:09:45;;;;;;;10.70;7.15;;;;;;;;;;10342238;28;20093;-63
2023/08/25 13:14:44;;;;;;;7.05;6.25;;;;;;;;;;10338831;28;20556;-63
2023/08/25 13:19:43;;;;;;;6.43;5.88;;;;;;;;;;10342875;28;20075;-64
2023/08/25 13:24:41;;;;;;;7.47;6.75;;;;;;;;;;10341745;28;20139;-63
2023/08/25 13:29:39;;;;;;;8.25;6.65;;;;;;;;;;10357208;28;20087;-63
2023/08/25 13:34:39;;;;;;;10.77;6.28;;;;;;;;;;10354521;28;20056;-64
2023/08/25 13:39:38;;;;;;;18.98;17.35;;;;;;;;;;10358574;28;20063;-63
2023/08/25 13:44:38;;;;;;;8.82;6.43;;;;;;;;;;10342927;28;20102;-62
2023/08/25 13:49:37;;;;;;;6.53;5.63;;;;;;;;;;10347667;28;20056;-63
2023/08/25 13:54:37;;;;;;;9.20;5.95;;;;;;;;;;10354955;28;21086;-63
2023/08/25 13:59:36;;;;;;;8.00;6.00;;;;;;;;;;10355185;28;20082;-63
2023/08/25 14:04:34;;;;;;;8.32;7.53;;;;;;;;;;10360607;28;20169;-63
2023/08/25 14:09:33;;;;;;;7.65;6.88;;;;;;;;;;10359793;28;20075;-64
2023/08/25 14:14:32;;;;;;;8.85;6.45;;;;;;;;;;10361178;28;20078;-64
2023/08/25 14:19:31;;;;;;;6.68;5.40;;;;;;;;;;10360432;28;20098;-63
2023/08/25 14:24:30;;;;;;;12.52;6.15;;;;;;;;;;10359786;28;20084;-63
2023/08/25 14:29:28;;;;;;;6.82;5.45;;;;;;;;;;10360215;28;20078;-63
2023/08/25 14:34:29;;;;;;;7.53;5.63;;;;;;;;;;10344837;28;20074;-63
2023/08/25 14:39:28;;;;;;;7.47;6.60;;;;;;;;;;10347662;28;20128;-63
2023/08/25 14:44:26;;;;;;;8.48;6.35;;;;;;;;;;10359497;28;20501;-63
2023/08/25 14:49:24;;;;;;;10.73;7.65;;;;;;;;;;10359569;28;20064;-64
2023/08/25 14:54:24;;;;;;;8.80;6.60;;;;;;;;;;10356232;28;20445;-63
2023/08/25 14:59:23;;;;;;;8.27;5.97;;;;;;;;;;10356475;28;20090;-63
2023/08/25 15:04:24;;;;;;;8.63;6.53;;;;;;;;;;10353189;28;20079;-63
2023/08/25 15:09:24;;;;;;;8.10;6.00;;;;;;;;;;10357572;28;20459;-63
2023/08/25 15:14:22;;;;;;;8.02;6.60;;;;;;;;;;10357936;28;20079;-63
2023/08/25 15:19:22;;;;;;;8.40;5.53;;;;;;;;;;10355953;28;20076;-63
2023/08/25 15:24:20;;;;;;;8.40;6.10;;;;;;;;;;10357811;28;20083;-63
2023/08/25 15:29:20;;;;;;;8.55;6.53;;;;;;;;;;10354944;28;20072;-64
2023/08/25 15:34:27;;;;;;;7.15;6.45;;;;;;;;;;10355777;28;20477;-63
2023/08/25 15:39:25;;;;;;;11.70;6.32;;;;;;;;;;10354244;28;20091;-63
2023/08/25 15:44:25;;;;;;;7.72;5.70;;;;;;;;;;10356731;28;20075;-63
2023/08/25 15:49:23;;;;;;;7.07;6.38;;;;;;;;;;10356074;28;20535;-63
2023/08/25 15:54:21;;;;;;;8.60;5.93;;;;;;;;;;10357017;28;20083;-63
2023/08/25 15:59:20;;;;;;;7.53;6.60;;;;;;;;;;10356453;28;20484;-63
2023/08/25 16:04:19;;;;;;;13.93;8.75;;;;;;;;;;10356205;28;20512;-64
2023/08/25 16:09:17;;;;;;;7.50;6.13;;;;;;;;;;10355720;28;20520;-64
2023/08/25 16:14:17;;;;;;;11.25;6.20;;;;;;;;;;10356038;28;20483;-62
2023/08/25 16:19:15;;;;;;;13.73;8.57;;;;;;;;;;10355668;28;20527;-63
2023/08/25 16:24:15;;;;;;;17.80;11.35;;;;;;;;;;10353557;28;20083;-64
2023/08/25 16:29:13;;;;;;;12.50;8.30;;;;;;;;;;10355873;28;20067;-63
2023/08/25 16:34:11;;;;;;;13.05;11.23;;;;;;;;;;10355263;28;20074;-63
2023/08/25 16:39:10;;;;;;;15.35;9.80;;;;;;;;;;10355107;28;20076;-62
2023/08/25 16:44:10;;;;;;;19.13;10.43;;;;;;;;;;10353588;28;20098;-63
2023/08/25 16:49:08;;;;;;;15.05;9.43;;;;;;;;;;10355185;28;20501;-63
2023/08/25 16:54:06;;;;;;;9.68;8.50;;;;;;;;;;10355195;28;20075;-63
2023/08/25 16:59:05;;;;;;;12.30;10.57;;;;;;;;;;10347027;28;20083;-63
2023/08/25 17:04:05;;;;;;;11.75;10.48;;;;;;;;;;10347678;28;20082;-64
2023/08/25 17:09:03;;;;;;;9.60;8.65;;;;;;;;;;10354721;28;20067;-62
2023/08/25 17:14:01;;;;;;;16.98;8.95;;;;;;;;;;10353577;28;20067;-63
2023/08/25 17:18:59;;;;;;;17.92;7.45;;;;;;;;;;10346958;28;20075;-63
2023/08/25 17:23:59;;;;;;;10.55;8.45;;;;;;;;;;10351101;28;20608;-63
2023/08/25 17:28:57;;;;;;;12.68;8.45;;;;;;;;;;10352719;28;20076;-64
2023/08/25 17:33:55;;;;;;;12.73;11.45;;;;;;;;;;10345689;28;20067;-63
2023/08/25 17:38:54;;;;;;;17.20;15.05;;;;;;;;;;10353169;28;20079;-64
2023/08/25 17:43:53;;;;;;;22.13;19.95;;;;;;;;;;10345130;28;20072;-64
2023/08/25 17:48:51;;;;;;;11.27;9.35;;;;;;;;;;10353345;28;20434;-63
2023/08/25 17:53:49;;;;;;;20.42;18.65;;;;;;;;;;10350460;28;20063;-63
2023/08/25 17:58:48;;;;;;;19.33;17.35;;;;;;;;;;10351546;28;20072;-64
2023/08/25 18:03:47;;;;;;;15.40;13.90;;;;;;;;;;10350183;28;20094;-64
2023/08/25 18:08:46;;;;;;;13.20;11.90;;;;;;;;;;10355037;28;20490;-63
2023/08/25 18:13:44;;;;;;;16.60;14.90;;;;;;;;;;10353990;28;20071;-64
2023/08/25 18:18:49;;;;;;;12.82;10.95;;;;;;;;;;10356719;28;20468;-64
2023/08/25 18:23:48;;;;;;;12.00;10.50;;;;;;;;;;10358501;28;20516;-64
2023/08/25 18:28:49;;;;;;;11.27;10.10;;;;;;;;;;10358405;28;20064;-63
2023/08/25 18:33:48;;;;;;;24.38;22.05;;;;;;;;;;10360663;28;20067;-63
2023/08/25 18:38:49;;;;;;;16.90;12.52;;;;;;;;;;10363744;28;20142;-63
2023/08/25 18:43:48;;;;;;;15.85;10.88;;;;;;;;;;10357549;28;20071;-64
2023/08/25 18:48:46;;;;;;;11.48;10.20;;;;;;;;;;10359278;28;20433;-63
2023/08/25 18:53:44;;;;;;;10.30;8.73;;;;;;;;;;10359535;28;20455;-64
2023/08/25 18:58:44;;;;;;;9.77;7.50;;;;;;;;;;10353365;28;20070;-63
2023/08/25 19:03:44;;;;;;;8.70;7.50;;;;;;;;;;10351131;28;20078;-63
2023/08/25 19:08:42;;;;;;;9.40;7.38;;;;;;;;;;10362468;28;20060;-63
2023/08/25 19:13:41;;;;;;;22.05;20.08;;;;;;;;;;10358263;28;20059;-63
2023/08/25 19:18:41;;;;;;;12.63;7.53;;;;;;;;;;10355440;28;20075;-63
2023/08/25 19:23:43;;;;;;;9.50;7.43;;;;;;;;;;10358978;28;20076;-63
2023/08/25 19:28:42;;;;;;;10.38;7.57;;;;;;;;;;10356508;28;20068;-63
2023/08/25 19:33:41;;;;;;;9.88;8.60;;;;;;;;;;10356664;28;20072;-64
2023/08/25 19:38:40;;;;;;;53.03;48.08;;;;;;;;;;10356955;28;20083;-64
2023/08/25 19:43:39;;;;;;;14.40;10.38;;;;;;;;;;10357254;28;20501;-64
2023/08/25 19:48:40;;;;;;;14.90;7.88;;;;;;;;;;10356407;28;20072;-63
2023/08/25 19:53:40;;;;;;;10.38;8.18;;;;;;;;;;10358933;28;20063;-63
2023/08/25 19:58:38;;;;;;;15.07;10.23;;;;;;;;;;10356560;28;20599;-64
2023/08/25 20:03:37;;;;;;;15.15;11.05;;;;;;;;;;10355229;28;20079;-63
2023/08/25 20:08:36;;;;;;;14.30;10.15;;;;;;;;;;10355614;28;20079;-63
2023/08/25 20:13:38;;;;;;;11.98;9.95;;;;;;;;;;10356292;28;20075;-63
2023/08/25 20:18:37;;;;;;;10.02;9.02;;;;;;;;;;10355708;28;20075;-64
2023/08/25 20:23:35;;;;;;;13.13;8.65;;;;;;;;;;10355491;28;20102;-63
2023/08/25 20:28:37;;;;;;;14.70;8.32;;;;;;;;;;10351087;28;20071;-63
2023/08/25 20:33:37;;;;;;;7.93;6.78;;;;;;;;;;10346760;28;20067;-63
2023/08/25 20:38:35;;;;;;;12.32;7.20;;;;;;;;;;10351497;28;20068;-63
2023/08/25 20:43:34;;;;;;;11.93;7.60;;;;;;;;;;10339563;28;20071;-64
2023/08/25 20:48:36;;;;;;;;;;;;;;;;;;10355042;28;20060;-65
2023/08/25 20:53:36;;;;;;;9.13;8.15;;;;;;;;;;10353292;28;19962;-63
2023/08/25 20:58:34;;;;;;;15.65;8.18;;;;;;;;;;10345928;28;20071;-63
2023/08/25 21:03:33;;;;;;;10.30;7.00;;;;;;;;;;10353971;28;20472;-64
2023/08/25 21:08:32;;;;;;;7.93;7.22;;;;;;;;;;10347801;28;20063;-63
2023/08/25 21:13:31;;;;;;;7.82;6.85;;;;;;;;;;10349808;28;20067;-63
2023/08/25 21:18:30;;;;;;;9.85;6.00;;;;;;;;;;10344524;28;20354;-63
2023/08/25 21:23:28;;;;;;;14.07;7.60;;;;;;;;;;10312718;28;20140;-63
2023/08/25 21:28:26;;;;;;;6.85;6.22;;;;;;;;;;10342382;28;20078;-63
2023/08/25 21:33:26;;;;;;;8.52;6.00;;;;;;;;;;10333618;28;20496;-63
2023/08/25 21:38:25;;;;;;;10.73;6.15;;;;;;;;;;10352504;28;20067;-63
2023/08/25 21:43:23;;;;;;;6.90;6.22;;;;;;;;;;10353808;28;20079;-63
2023/08/25 21:48:21;;;;;;;6.45;5.85;;;;;;;;;;10357046;28;20075;-63
2023/08/25 21:53:20;;;;;;;9.25;6.55;;;;;;;;;;10360147;28;20068;-63
2023/08/25 21:58:19;;;;;;;7.40;6.22;;;;;;;;;;10361393;28;20076;-64
2023/08/25 22:03:17;;;;;;;8.32;6.43;;;;;;;;;;10361229;28;20078;-63
2023/08/25 22:08:16;;;;;;;7.15;5.85;;;;;;;;;;10360391;28;20079;-62
2023/08/25 22:13:15;;;;;;;10.27;6.75;;;;;;;;;;10361131;28;20067;-62
2023/08/25 22:18:14;;;;;;;6.93;6.30;;;;;;;;;;10356357;28;20467;-62
2023/08/25 22:23:12;;;;;;;8.27;6.18;;;;;;;;;;10359753;28;20076;-63
2023/08/25 22:28:10;;;;;;;5.90;5.40;;;;;;;;;;10359959;28;20074;-61
2023/08/25 22:33:10;;;;;;;7.05;5.43;;;;;;;;;;10359474;28;20067;-62
2023/08/25 22:38:11;;;;;;;7.30;5.23;;;;;;;;;;10353149;28;20516;-62
2023/08/25 22:43:09;;;;;;;9.00;6.38;;;;;;;;;;10354428;28;20322;-63
2023/08/25 22:48:08;;;;;;;8.25;5.70;;;;;;;;;;10355653;28;20083;-62
2023/08/25 22:53:07;;;;;;;6.10;5.47;;;;;;;;;;10358347;28;20071;-63
2023/08/25 22:58:05;;;;;;;6.25;5.05;;;;;;;;;;10359303;28;20060;-64
2023/08/25 23:03:04;;;;;;;6.07;4.72;;;;;;;;;;10358441;28;20290;-63
2023/08/25 23:08:02;;;;;;;12.20;4.55;;;;;;;;;;10356075;28;20535;-63
2023/08/25 23:13:02;;;;;;;5.30;4.80;;;;;;;;;;10358609;28;20066;-64
2023/08/25 23:18:01;;;;;;;6.05;4.93;;;;;;;;;;10357464;28;20067;-63
2023/08/25 23:22:59;;;;;;;5.55;4.80;;;;;;;;;;10356660;28;20119;-64
2023/08/25 23:27:57;;;;;;;5.95;4.90;;;;;;;;;;10356301;28;20075;-63
2023/08/25 23:32:57;;;;;;;5.18;4.68;;;;;;;;;;10357085;28;20146;-63
2023/08/25 23:37:55;;;;;;;5.25;4.75;;;;;;;;;;10356715;28;20063;-62
2023/08/25 23:42:54;;;;;;;5.22;4.70;;;;;;;;;;10356548;28;20070;-62
2023/08/25 23:47:52;;;;;;;7.95;4.65;;;;;;;;;;10356809;28;20087;-63
2023/08/25 23:52:53;;;;;;;4.80;4.40;;;;;;;;;;10356723;28;20063;-62
2023/08/25 23:57:51;;;;;;;6.50;5.65;;;;;;;;;;10355922;28;20072;-63
